Depauw, Indiana
Current Conditions -  °F | °C
As of 11:56 PM on Friday 19 Dec 2014 (Local Time) from KSDF Reporting Station
Overcast Overcast  
Wind Chill: 25°   Ceiling: 13000
Heat Index: 30°   Visibility: 9mi
Dew Point: 22°   Wind: 5mph
Humidity: 72%   Direction: 80°E
Pressure: 30.26"   Gusts: NA
Location:  38.33°N, 86.22°W
Report Text: KSDF 200456Z 08004KT 9SM OVC130 M01/M06 A3026 RMK AO2 SLP253 T10111056 400281028
Loading
Personal Weather Stations






























Interactive Weather Map New forecast layout! Learn more

10-Day Weather Forecast

Advertisements
Track Severe Weather on mobile